Glencoe, MN

1:30 AM CDT on October 25, 2014 (GMT -0500)
Glencoe Municipal | Change Station
CLOSE
Current Station
Airport
Location: Glencoe,
Elevation: 991 ft
Nearby Weather Stations

Elev 991 ft 44.76 °N, 94.09 °W | Updated 16 minutes ago

Scattered Clouds
Scattered Clouds
59 °F
Feels Like 59 °F
N
8
Wind Variable Wind from West

Today
High -- | Low -- °F
--% Chance of Precip.
Yesterday
High -- | Low -- °F
Precip. -- in
7:45 AM 6:15 PM
New Moon, 2% visible
Pressure 29.94 in
Visibility 10.0 miles
Clouds Scattered Clouds 12000 ft
Dew Point 44 °F
Humidity 58%
Rainfall 0.00 in
Snow Depth Not available.
UV 0 out of 12
Pollen .90 out of 12
Ozone Good
PM2.5 Moderate
Flu Activity Sporadic
METAR KGYL 250614Z AUTO 28007KT 10SM SCT120 15/07 A2994 RMK AO2 T01480065

More Conditions Fewer Conditions

Pressure 29.94 in
Visibility 10.0 miles
Clouds Scattered Clouds 12000 ft
Dew Point 44 °F
Humidity 58%
Rainfall 0.00 in
Snow Depth Not available.
UV 0 out of 12
Pollen .90 out of 12
Ozone Good
PM2.5 Moderate
Flu Activity Sporadic
METAR KGYL 250614Z AUTO 28007KT 10SM SCT120 15/07 A2994 RMK AO2 T01480065

More Conditions Fewer Conditions

10-Day Weather Forecast

Almanac

Astronomy

Oct. 25, 2014 Rise Set
Actual Time 7:45 AM CDT 6:15 PM CDT
Civil Twilight 7:15 AM CDT 6:45 PM CDT
Nautical Twilight 6:40 AM CDT 7:19 PM CDT
Astronomical Twilight 6:07 AM CDT 7:53 PM CDT
Moon 9:28 AM CDT 7:35 PM CDT
Length of Visible Light 11h 30m
Length of Day
10h 30m
Tomorrow will be 2m 53s shorter.
New Moon, 2% of the Moon is Illuminated
Today
New Moon
Oct 30
First Quarter
Nov 6
Full
Nov 14
Last Quarter
Nov 22
New

Today's Extremes

State Highs State Lows

Community

WunderPhotos

Upload Photos

1,764,785 photos uploaded!

Nearby

Air Quality

  Air Quality AQ Index Pollutant
Yesterday Moderate
PM2.5
Yesterday Good
OZONE
Current Moderate
PM2.5
Current Good
OZONE
Saturday Good
PM2.5
Sunday Moderate
PM2.5
Monday Good
PM2.5
Tuesday Good
PM2.5
Wednesday Good
PM2.5

Snow Depth

Station Depth Elevation
No new snow has been reported.

Earthquake Activity

City Distance Mag. Time & Date
No recent earthquake activity has been reported nearby.
Minimum magnitude displayed is 2.5.

Coastal Water Temperatures

Place Temperature
No Stations Reporting

Nearby Weather Stations